createdAt,value
2019-05-26T00:01:00.189Z,12.95
2019-05-26T00:03:28.752Z,12.90
2019-05-26T00:05:57.217Z,12.85
2019-05-26T00:08:25.718Z,12.83
2019-05-26T00:10:54.197Z,12.80
2019-05-26T00:13:22.743Z,12.84
2019-05-26T00:15:51.223Z,12.90
2019-05-26T00:18:19.717Z,12.74
2019-05-26T00:20:48.197Z,12.64
2019-05-26T00:23:16.678Z,12.75
2019-05-26T00:25:45.164Z,12.72
2019-05-26T00:28:13.626Z,12.53
2019-05-26T00:30:42.134Z,12.67
2019-05-26T00:33:10.599Z,12.74
2019-05-26T00:35:39.153Z,12.72
2019-05-26T00:38:07.618Z,12.70
2019-05-26T00:40:36.151Z,12.71
2019-05-26T00:43:04.751Z,12.63
2019-05-26T00:45:33.319Z,12.64
2019-05-26T00:48:01.795Z,12.63
2019-05-26T00:50:30.433Z,12.65
2019-05-26T00:52:58.969Z,12.64
2019-05-26T00:55:27.460Z,12.42
2019-05-26T00:57:55.927Z,12.55
2019-05-26T01:00:42.944Z,12.41
2019-05-26T01:03:12.359Z,12.33
2019-05-26T01:05:41.190Z,12.28
2019-05-26T01:08:10.411Z,12.29
2019-05-26T01:10:38.914Z,12.27
2019-05-26T01:13:07.765Z,12.25
2019-05-26T01:15:36.328Z,12.17
2019-05-26T01:18:05.731Z,12.27
2019-05-26T01:20:34.281Z,12.21
2019-05-26T01:23:02.761Z,12.18
2019-05-26T01:25:31.255Z,12.20
2019-05-26T01:27:59.725Z,12.25
2019-05-26T01:30:36.307Z,12.18
2019-05-26T01:33:05.534Z,12.09
2019-05-26T01:35:35.643Z,12.05
2019-05-26T01:38:04.441Z,12.03
2019-05-26T01:40:41.825Z,11.94
2019-05-26T01:43:10.345Z,12.02
2019-05-26T01:45:38.920Z,11.94
2019-05-26T01:48:08.295Z,11.82
2019-05-26T01:50:36.931Z,11.93
2019-05-26T01:53:05.849Z,11.89
2019-05-26T01:55:40.450Z,11.88
2019-05-26T01:58:08.956Z,11.81
2019-05-26T02:00:37.497Z,11.88
2019-05-26T02:03:06.054Z,11.74
2019-05-26T02:05:34.551Z,11.67
2019-05-26T02:08:03.093Z,11.66
2019-05-26T02:10:31.573Z,11.62
2019-05-26T02:13:00.094Z,11.73
2019-05-26T02:15:29.152Z,11.57
2019-05-26T02:17:57.690Z,11.75
2019-05-26T02:20:26.312Z,11.42
2019-05-26T02:22:54.787Z,11.49
2019-05-26T02:25:23.713Z,11.54
2019-05-26T02:27:52.192Z,11.54
2019-05-26T02:30:20.936Z,11.49
2019-05-26T02:32:49.466Z,11.58
2019-05-26T02:35:18.394Z,11.60
2019-05-26T02:37:46.873Z,11.56
2019-05-26T02:40:16.501Z,11.64
2019-05-26T02:42:44.983Z,11.52
2019-05-26T02:45:15.679Z,11.59
2019-05-26T02:47:45.556Z,11.33
2019-05-26T02:50:16.123Z,11.43
2019-05-26T02:52:44.613Z,11.34
2019-05-26T02:55:13.619Z,11.32
2019-05-26T02:57:42.097Z,11.27
2019-05-26T03:00:12.314Z,11.19
2019-05-26T03:02:41.099Z,11.15
2019-05-26T03:05:11.920Z,11.19
2019-05-26T03:07:45.086Z,11.16
2019-05-26T03:10:15.003Z,11.17
2019-05-26T03:12:43.764Z,11.20
2019-05-26T03:15:14.619Z,11.17
2019-05-26T03:17:43.540Z,11.19
2019-05-26T03:20:15.638Z,11.16
2019-05-26T03:22:45.730Z,11.10
2019-05-26T03:25:14.840Z,11.15
2019-05-26T03:27:43.336Z,11.14
2019-05-26T03:30:13.085Z,11.19
2019-05-26T03:32:41.559Z,11.19
2019-05-26T03:35:10.212Z,11.11
2019-05-26T03:37:38.767Z,11.08
2019-05-26T03:40:09.305Z,11.14
2019-05-26T03:42:37.852Z,11.12
2019-05-26T03:45:07.743Z,11.08
2019-05-26T03:47:36.315Z,11.10
2019-05-26T03:50:06.910Z,11.14
2019-05-26T03:52:35.464Z,11.08
2019-05-26T03:55:05.111Z,11.12
2019-05-26T03:57:33.611Z,11.08
2019-05-26T04:00:02.105Z,11.04
2019-05-26T04:02:31.015Z,11.04
2019-05-26T04:04:59.486Z,11.18
2019-05-26T04:07:27.986Z,11.08
2019-05-26T04:10:04.801Z,11.11
2019-05-26T04:12:26.675Z,11.07
2019-05-26T04:14:55.147Z,11.08
2019-05-26T04:17:23.716Z,11.11
2019-05-26T04:19:52.200Z,11.20
2019-05-26T04:22:20.689Z,11.23
2019-05-26T04:24:49.151Z,11.32
2019-05-26T04:27:17.649Z,11.29
2019-05-26T04:29:46.129Z,11.29
2019-05-26T04:32:14.607Z,11.31
2019-05-26T04:34:43.063Z,11.34
2019-05-26T04:37:11.621Z,11.35
2019-05-26T04:39:40.103Z,11.38
2019-05-26T04:42:08.605Z,11.37
2019-05-26T04:44:37.066Z,11.40
2019-05-26T04:47:05.533Z,11.45
2019-05-26T04:49:37.419Z,11.47
2019-05-26T04:52:04.309Z,11.55
2019-05-26T04:54:32.787Z,11.55
2019-05-26T04:57:01.271Z,11.57
2019-05-26T04:59:29.755Z,11.58
2019-05-26T05:01:58.222Z,11.70
2019-05-26T05:04:26.781Z,11.75
2019-05-26T05:06:55.252Z,11.84
2019-05-26T05:09:23.746Z,11.91
2019-05-26T05:11:52.215Z,11.98
2019-05-26T05:14:20.776Z,11.96
2019-05-26T05:16:49.241Z,12.08
2019-05-26T05:19:17.744Z,12.14
2019-05-26T05:21:46.228Z,12.06
2019-05-26T05:24:14.704Z,12.20
2019-05-26T05:26:43.184Z,12.34
2019-05-26T05:29:11.685Z,12.47
2019-05-26T05:31:40.155Z,12.56
2019-05-26T05:34:08.646Z,12.75
2019-05-26T05:36:37.110Z,12.91
2019-05-26T05:39:08.053Z,13.01
2019-05-26T05:41:36.518Z,13.08
2019-05-26T05:44:05.251Z,13.21
2019-05-26T05:46:33.727Z,13.37
2019-05-26T05:49:02.220Z,13.51
2019-05-26T05:51:30.708Z,13.56
2019-05-26T05:53:59.217Z,13.79
2019-05-26T05:56:27.694Z,13.99
2019-05-26T05:58:56.196Z,14.15
2019-05-26T06:01:24.694Z,13.98
2019-05-26T06:03:53.191Z,14.02
2019-05-26T06:06:21.656Z,14.34
2019-05-26T06:08:50.148Z,14.46
2019-05-26T06:11:18.617Z,14.65
2019-05-26T06:13:47.103Z,14.59
2019-05-26T06:16:15.583Z,14.62
2019-05-26T06:18:44.078Z,14.88
2019-05-26T06:21:12.579Z,15.14
2019-05-26T06:23:41.061Z,15.13
2019-05-26T06:26:09.521Z,15.46
2019-05-26T06:28:38.004Z,15.77
2019-05-26T06:31:06.479Z,16.03
2019-05-26T06:33:34.965Z,16.15
2019-05-26T06:36:03.468Z,16.27
2019-05-26T06:38:31.951Z,16.65
2019-05-26T06:41:00.439Z,17.13
2019-05-26T06:43:28.915Z,17.57
2019-05-26T06:45:57.395Z,17.63
2019-05-26T06:48:26.971Z,18.04
2019-05-26T06:50:55.725Z,18.15
2019-05-26T06:53:24.201Z,18.47
2019-05-26T06:55:52.689Z,18.95
2019-05-26T06:58:21.172Z,18.66
2019-05-26T07:00:49.730Z,18.93
2019-05-26T07:03:18.228Z,18.52
2019-05-26T07:05:47.207Z,18.66
2019-05-26T07:08:15.711Z,19.11
2019-05-26T07:10:44.220Z,19.43
2019-05-26T07:13:12.680Z,20.09
2019-05-26T07:15:41.189Z,20.23
2019-05-26T07:18:09.674Z,20.33
2019-05-26T07:20:38.167Z,20.18
2019-05-26T07:23:07.782Z,20.41
2019-05-26T07:25:36.926Z,20.86
2019-05-26T07:28:05.475Z,20.83
2019-05-26T07:30:33.959Z,20.77
2019-05-26T07:33:02.421Z,20.83
2019-05-26T07:35:33.056Z,20.87
2019-05-26T07:38:01.117Z,20.73
2019-05-26T07:40:29.655Z,20.44
2019-05-26T07:42:58.107Z,20.67
2019-05-26T07:45:26.623Z,20.74
2019-05-26T07:47:55.102Z,20.68
2019-05-26T07:50:23.597Z,20.48
2019-05-26T07:52:52.097Z,20.49
2019-05-26T07:55:20.671Z,20.56
2019-05-26T07:57:49.608Z,20.48
2019-05-26T08:00:18.640Z,20.64
2019-05-26T08:02:47.109Z,20.89
2019-05-26T08:05:15.942Z,20.95
2019-05-26T08:07:44.426Z,20.91
2019-05-26T08:10:13.461Z,20.71
2019-05-26T08:12:42.011Z,20.39
2019-05-26T08:15:10.644Z,20.34
2019-05-26T08:17:39.128Z,20.23
2019-05-26T08:20:09.258Z,20.43
2019-05-26T08:22:37.745Z,20.65
2019-05-26T08:25:09.950Z,20.29
2019-05-26T08:27:38.430Z,20.53
2019-05-26T08:30:07.874Z,20.45
2019-05-26T08:32:36.506Z,20.24
2019-05-26T08:35:07.594Z,20.45
2019-05-26T08:37:36.075Z,20.60
2019-05-26T08:40:14.352Z,21.01
2019-05-26T08:42:44.701Z,21.33
2019-05-26T08:45:13.091Z,21.10
2019-05-26T08:47:41.589Z,21.23
2019-05-26T08:50:10.188Z,21.33
2019-05-26T08:52:38.685Z,21.43
2019-05-26T08:55:08.002Z,21.75
2019-05-26T08:57:36.578Z,22.14
2019-05-26T09:00:09.304Z,22.45
2019-05-26T09:02:37.793Z,22.62
2019-05-26T09:05:09.686Z,22.78
2019-05-26T09:07:38.202Z,22.99
2019-05-26T09:10:07.511Z,23.11
2019-05-26T09:12:36.018Z,23.47
2019-05-26T09:15:06.333Z,23.37
2019-05-26T09:17:34.815Z,23.62
2019-05-26T09:20:04.832Z,24.12
2019-05-26T09:22:33.324Z,24.29
2019-05-26T09:25:02.023Z,24.07
2019-05-26T09:27:30.585Z,23.81
2019-05-26T09:29:59.047Z,23.97
2019-05-26T09:32:27.548Z,23.00
2019-05-26T09:34:56.014Z,23.17
2019-05-26T09:37:24.533Z,23.05
2019-05-26T09:39:53.000Z,22.69
2019-05-26T09:42:22.492Z,22.96
2019-05-26T09:44:51.152Z,22.83
2019-05-26T09:47:19.650Z,22.58
2019-05-26T09:49:48.126Z,22.80
2019-05-26T09:52:16.606Z,22.79
2019-05-26T09:54:45.082Z,23.10
2019-05-26T09:57:13.565Z,23.51
2019-05-26T09:59:50.586Z,23.83
2019-05-26T10:02:19.083Z,23.91
2019-05-26T10:04:47.583Z,23.74
2019-05-26T10:07:16.233Z,23.17
2019-05-26T10:09:44.743Z,23.38
2019-05-26T10:12:13.225Z,23.69
2019-05-26T10:14:41.770Z,23.72
2019-05-26T10:17:10.264Z,23.60
2019-05-26T10:19:38.762Z,23.69
2019-05-26T10:22:07.304Z,23.75
2019-05-26T10:24:35.811Z,24.05
2019-05-26T10:27:04.311Z,24.23
2019-05-26T10:29:32.807Z,24.19
2019-05-26T10:32:01.275Z,23.78
2019-05-26T10:34:29.771Z,23.17
2019-05-26T10:36:58.293Z,23.51
2019-05-26T10:39:26.778Z,23.47
2019-05-26T10:41:55.279Z,23.39
2019-05-26T10:44:23.775Z,23.15
2019-05-26T10:46:52.249Z,23.15
2019-05-26T10:49:20.749Z,23.03
2019-05-26T10:51:49.425Z,23.10
2019-05-26T10:54:18.366Z,22.88
2019-05-26T10:56:46.974Z,22.95
2019-05-26T10:59:15.484Z,22.93
2019-05-26T11:01:44.148Z,23.02
2019-05-26T11:04:14.234Z,23.29
2019-05-26T11:06:42.918Z,23.15
2019-05-26T11:09:11.469Z,22.99
2019-05-26T11:11:39.936Z,23.03
2019-05-26T11:14:08.504Z,22.78
2019-05-26T11:16:36.971Z,22.47
2019-05-26T11:19:05.661Z,22.81
2019-05-26T11:21:34.159Z,22.82
2019-05-26T11:24:02.678Z,23.10
2019-05-26T11:26:31.162Z,22.88
2019-05-26T11:29:01.226Z,22.86
2019-05-26T11:31:29.764Z,22.71
2019-05-26T11:33:58.373Z,22.88
2019-05-26T11:36:26.871Z,22.82
2019-05-26T11:38:55.384Z,22.76
2019-05-26T11:41:23.895Z,22.89
2019-05-26T11:43:53.932Z,22.86
2019-05-26T11:46:22.494Z,22.49
2019-05-26T11:48:51.038Z,22.80
2019-05-26T11:51:19.541Z,23.05
2019-05-26T11:53:48.192Z,23.00
2019-05-26T11:56:16.695Z,22.84
2019-05-26T11:58:45.418Z,22.88
2019-05-26T12:01:14.018Z,22.69
2019-05-26T12:03:42.667Z,22.66
2019-05-26T12:06:11.364Z,22.65
2019-05-26T12:08:40.005Z,22.74
2019-05-26T12:11:08.583Z,22.92
2019-05-26T12:13:37.150Z,22.68
2019-05-26T12:16:05.782Z,22.74
2019-05-26T12:18:34.385Z,22.94
2019-05-26T12:21:02.867Z,22.66
2019-05-26T12:23:31.567Z,22.71
2019-05-26T12:26:00.107Z,22.89
2019-05-26T12:28:28.648Z,22.78
2019-05-26T12:30:57.133Z,22.61
2019-05-26T12:33:25.734Z,22.81
2019-05-26T12:35:54.265Z,22.79
2019-05-26T12:38:22.846Z,22.88
2019-05-26T12:40:51.539Z,23.04
2019-05-26T12:43:24.508Z,22.99
2019-05-26T12:45:56.567Z,23.35
2019-05-26T12:48:25.191Z,23.06
2019-05-26T12:50:53.848Z,23.04
2019-05-26T12:53:22.419Z,22.81
2019-05-26T12:55:51.045Z,22.85
2019-05-26T12:58:19.703Z,23.09
2019-05-26T13:00:53.664Z,22.84
2019-05-26T13:03:20.518Z,22.72
2019-05-26T13:05:49.110Z,22.92
2019-05-26T13:08:17.672Z,23.01
2019-05-26T13:10:46.436Z,22.89
2019-05-26T13:13:14.964Z,22.88
2019-05-26T13:15:43.492Z,22.62
2019-05-26T13:18:12.897Z,22.77
2019-05-26T13:20:41.429Z,22.63
2019-05-26T13:23:10.058Z,22.63
2019-05-26T13:25:38.746Z,22.79
2019-05-26T13:28:07.309Z,22.65
2019-05-26T13:30:36.420Z,22.55
2019-05-26T13:33:05.322Z,22.97
2019-05-26T13:35:33.969Z,22.58
2019-05-26T13:38:02.740Z,22.65
2019-05-26T13:40:32.644Z,22.78
2019-05-26T13:43:01.224Z,22.62
2019-05-26T13:45:29.817Z,22.76
2019-05-26T13:47:58.398Z,22.63
2019-05-26T13:50:27.229Z,22.73
2019-05-26T13:52:55.832Z,22.69
2019-05-26T13:55:24.661Z,22.72
2019-05-26T13:57:53.242Z,22.68
2019-05-26T14:00:22.921Z,22.56
2019-05-26T14:02:51.499Z,22.56
2019-05-26T14:05:20.240Z,22.52
2019-05-26T14:07:48.949Z,22.42
2019-05-26T14:10:32.155Z,22.56
2019-05-26T14:13:00.805Z,22.49
2019-05-26T14:15:38.248Z,22.55
2019-05-26T14:18:00.631Z,22.46
2019-05-26T14:20:42.745Z,22.53
2019-05-26T14:23:12.240Z,22.50
2019-05-26T14:25:40.774Z,22.42
2019-05-26T14:28:11.383Z,22.37
2019-05-26T14:30:39.940Z,22.34
2019-05-26T14:33:08.548Z,22.44
2019-05-26T14:35:37.307Z,22.49
2019-05-26T14:38:05.981Z,22.46
2019-05-26T14:40:34.543Z,22.45
2019-05-26T14:43:04.126Z,22.47
2019-05-26T14:45:32.724Z,22.47
2019-05-26T14:48:01.389Z,22.42
2019-05-26T14:50:30.026Z,22.37
2019-05-26T14:52:58.595Z,22.33
2019-05-26T14:55:27.384Z,22.38
2019-05-26T14:58:12.352Z,22.48
2019-05-26T15:00:28.082Z,22.34
2019-05-26T15:02:56.652Z,22.33
2019-05-26T15:05:25.257Z,22.26
2019-05-26T15:07:53.864Z,22.42
2019-05-26T15:10:22.832Z,22.33
2019-05-26T15:12:51.555Z,22.22
2019-05-26T15:15:20.187Z,22.18
2019-05-26T15:17:48.748Z,22.16
2019-05-26T15:20:19.397Z,22.20
2019-05-26T15:22:47.973Z,22.16
2019-05-26T15:25:16.704Z,22.12
2019-05-26T15:27:46.675Z,22.17
2019-05-26T15:30:17.684Z,22.16
2019-05-26T15:32:46.268Z,22.17
2019-05-26T15:35:16.322Z,22.14
2019-05-26T15:37:44.899Z,22.16
2019-05-26T15:40:13.880Z,22.02
2019-05-26T15:42:42.433Z,21.89
2019-05-26T15:45:11.356Z,21.94
2019-05-26T15:47:39.960Z,21.86
2019-05-26T15:50:13.615Z,21.95
2019-05-26T15:52:40.834Z,22.04
2019-05-26T15:55:10.708Z,21.88
2019-05-26T15:57:39.316Z,21.84
2019-05-26T16:00:10.084Z,21.84
2019-05-26T16:02:38.634Z,21.83
2019-05-26T16:05:10.154Z,21.80
2019-05-26T16:07:38.705Z,21.78
2019-05-26T16:10:10.910Z,21.83
2019-05-26T16:12:41.808Z,21.92
2019-05-26T16:15:10.940Z,21.82
2019-05-26T16:17:39.814Z,21.92
2019-05-26T16:20:10.501Z,22.03
2019-05-26T16:22:39.143Z,22.00
2019-05-26T16:25:08.408Z,21.90
2019-05-26T16:27:37.000Z,21.83
2019-05-26T16:30:08.863Z,21.83
2019-05-26T16:32:37.548Z,21.88
2019-05-26T16:35:06.571Z,21.97
2019-05-26T16:37:35.120Z,22.04
2019-05-26T16:40:04.782Z,22.01
2019-05-26T16:42:33.295Z,22.09
2019-05-26T16:45:03.861Z,22.05
2019-05-26T16:47:32.170Z,21.96
2019-05-26T16:50:00.747Z,21.94
2019-05-26T16:52:29.371Z,21.89
2019-05-26T16:54:57.938Z,21.93
2019-05-26T16:57:26.531Z,21.87
2019-05-26T16:59:56.968Z,21.88
2019-05-26T17:02:25.526Z,21.81
2019-05-26T17:04:54.183Z,21.82
2019-05-26T17:07:22.802Z,21.83
2019-05-26T17:09:51.383Z,21.77
2019-05-26T17:12:19.954Z,21.83
2019-05-26T17:14:48.559Z,21.77
2019-05-26T17:17:17.150Z,21.71
2019-05-26T17:19:45.721Z,21.64
2019-05-26T17:22:14.323Z,21.65
2019-05-26T17:24:42.948Z,21.65
2019-05-26T17:27:11.564Z,21.59
2019-05-26T17:29:40.142Z,21.58
2019-05-26T17:32:08.643Z,21.53
2019-05-26T17:34:38.904Z,21.51
2019-05-26T17:37:07.467Z,21.47
2019-05-26T17:39:36.214Z,21.43
2019-05-26T17:42:04.799Z,21.42
2019-05-26T17:44:33.300Z,21.41
2019-05-26T17:47:01.892Z,21.43
2019-05-26T17:49:30.526Z,21.36
2019-05-26T17:51:59.112Z,21.28
2019-05-26T17:54:27.760Z,21.31
2019-05-26T17:56:56.280Z,21.25
2019-05-26T17:59:25.000Z,21.26
2019-05-26T18:01:53.527Z,21.22
2019-05-26T18:04:22.112Z,21.21
2019-05-26T18:06:50.672Z,21.19
2019-05-26T18:09:19.263Z,21.11
2019-05-26T18:11:47.763Z,21.11
2019-05-26T18:14:16.317Z,21.09
2019-05-26T18:16:44.886Z,21.08
2019-05-26T18:19:13.579Z,21.07
2019-05-26T18:21:44.449Z,20.98
2019-05-26T18:24:13.150Z,20.99
2019-05-26T18:26:41.683Z,20.94
2019-05-26T18:29:10.385Z,20.91
2019-05-26T18:31:41.781Z,20.90
2019-05-26T18:34:11.915Z,20.86
2019-05-26T18:36:40.419Z,20.81
2019-05-26T18:39:09.970Z,20.79
2019-05-26T18:41:38.559Z,20.86
2019-05-26T18:44:07.195Z,20.74
2019-05-26T18:46:35.721Z,20.70
2019-05-26T18:49:04.327Z,20.66
2019-05-26T18:51:32.815Z,20.64
2019-05-26T18:54:01.388Z,20.57
2019-05-26T18:56:29.955Z,20.52
2019-05-26T18:58:58.575Z,20.49
2019-05-26T19:01:27.177Z,20.46
2019-05-26T19:03:55.778Z,20.44
2019-05-26T19:06:26.115Z,20.42
2019-05-26T19:08:54.820Z,20.40
2019-05-26T19:11:23.504Z,20.33
2019-05-26T19:13:52.112Z,20.32
2019-05-26T19:16:20.748Z,20.33
2019-05-26T19:18:49.425Z,20.29
2019-05-26T19:21:18.058Z,20.28
2019-05-26T19:23:46.758Z,20.25
2019-05-26T19:26:15.300Z,20.19
2019-05-26T19:28:43.829Z,20.18
2019-05-26T19:31:12.356Z,20.17
2019-05-26T19:33:40.845Z,20.11
2019-05-26T19:36:09.911Z,20.09
2019-05-26T19:38:38.454Z,20.03
2019-05-26T19:41:07.217Z,20.03
2019-05-26T19:43:37.289Z,20.07
2019-05-26T19:46:06.149Z,20.01
2019-05-26T19:48:37.031Z,19.85
2019-05-26T19:51:05.614Z,19.89
2019-05-26T19:53:34.101Z,19.89
2019-05-26T19:56:02.612Z,19.89
2019-05-26T19:58:31.078Z,19.84
2019-05-26T20:00:59.618Z,19.88
2019-05-26T20:03:28.142Z,19.87
2019-05-26T20:05:56.701Z,19.84
2019-05-26T20:08:25.302Z,19.83
2019-05-26T20:10:53.907Z,19.84
2019-05-26T20:13:22.465Z,19.79
2019-05-26T20:15:51.028Z,19.82
2019-05-26T20:18:19.584Z,19.78
2019-05-26T20:20:48.117Z,19.76
2019-05-26T20:23:16.597Z,19.74
2019-05-26T20:25:45.108Z,19.72
2019-05-26T20:28:13.603Z,19.69
2019-05-26T20:30:42.107Z,19.78
2019-05-26T20:33:11.263Z,19.73
2019-05-26T20:35:39.796Z,19.64
2019-05-26T20:38:10.967Z,19.61
2019-05-26T20:40:40.004Z,19.72
2019-05-26T20:43:08.664Z,19.57
2019-05-26T20:45:37.683Z,19.56
2019-05-26T20:48:06.351Z,19.56
2019-05-26T20:50:34.853Z,19.55
2019-05-26T20:53:03.395Z,19.52
2019-05-26T20:55:31.922Z,19.51
2019-05-26T20:58:03.195Z,19.52
2019-05-26T21:00:31.731Z,19.52
2019-05-26T21:03:05.095Z,19.53
2019-05-26T21:05:33.587Z,19.57
2019-05-26T21:08:02.063Z,19.57
2019-05-26T21:10:30.570Z,19.46
2019-05-26T21:12:59.096Z,19.46
2019-05-26T21:15:27.682Z,19.43
2019-05-26T21:17:56.195Z,19.42
2019-05-26T21:20:24.686Z,19.40
2019-05-26T21:22:53.721Z,19.41
2019-05-26T21:25:22.276Z,19.44
2019-05-26T21:27:50.815Z,19.42
2019-05-26T21:30:19.496Z,19.39
2019-05-26T21:32:48.042Z,19.39
2019-05-26T21:35:16.600Z,19.38
2019-05-26T21:37:45.271Z,19.38
2019-05-26T21:40:14.117Z,19.38
2019-05-26T21:42:42.671Z,19.35
2019-05-26T21:45:11.483Z,19.34
2019-05-26T21:47:40.074Z,19.39
2019-05-26T21:50:09.882Z,19.37
2019-05-26T21:52:38.474Z,19.33
2019-05-26T21:55:07.932Z,19.34
2019-05-26T21:57:36.582Z,19.34
2019-05-26T22:00:09.650Z,19.34
2019-05-26T22:02:38.342Z,19.34
2019-05-26T22:05:14.565Z,19.33
2019-05-26T22:07:43.150Z,19.32
2019-05-26T22:10:12.033Z,19.30
2019-05-26T22:12:40.726Z,19.31
2019-05-26T22:15:09.548Z,19.30
2019-05-26T22:17:38.089Z,19.27
2019-05-26T22:20:07.455Z,19.29
2019-05-26T22:22:35.970Z,19.27
2019-05-26T22:25:08.663Z,19.30
2019-05-26T22:27:37.220Z,19.30
2019-05-26T22:30:08.705Z,19.28
2019-05-26T22:32:37.242Z,19.30
2019-05-26T22:35:09.070Z,19.26
2019-05-26T22:37:37.738Z,19.28
2019-05-26T22:40:07.556Z,19.27
2019-05-26T22:42:36.084Z,19.28
2019-05-26T22:45:06.733Z,19.28
2019-05-26T22:47:35.244Z,19.28
2019-05-26T22:50:05.672Z,19.29
2019-05-26T22:52:34.178Z,19.28
2019-05-26T22:55:02.719Z,19.26
2019-05-26T22:57:31.243Z,19.24
2019-05-26T22:59:59.866Z,19.28
2019-05-26T23:02:28.373Z,19.29
2019-05-26T23:04:56.895Z,19.25
2019-05-26T23:07:25.456Z,19.25
2019-05-26T23:09:53.982Z,19.26
2019-05-26T23:12:22.584Z,19.25
2019-05-26T23:14:51.127Z,19.26
2019-05-26T23:17:19.680Z,19.26
2019-05-26T23:19:48.147Z,19.24
2019-05-26T23:22:16.649Z,19.25
2019-05-26T23:24:45.129Z,19.21
2019-05-26T23:27:13.694Z,19.21
2019-05-26T23:29:42.285Z,19.21
2019-05-26T23:32:10.771Z,19.21
2019-05-26T23:34:39.286Z,19.11
2019-05-26T23:37:07.833Z,19.12
2019-05-26T23:39:36.356Z,19.18
2019-05-26T23:42:05.098Z,19.16
2019-05-26T23:44:33.598Z,19.15
2019-05-26T23:47:02.082Z,19.14
2019-05-26T23:49:30.593Z,19.16
2019-05-26T23:51:59.072Z,19.15
2019-05-26T23:54:27.601Z,19.14
2019-05-26T23:56:56.086Z,19.14
2019-05-26T23:59:24.592Z,19.15
